Time;durP1;ratioP1;P1;durP2;ratioP2;P2;SDS_P1;SDS_P2;PMS_P1;PMS_P2;Temp;Humidity;BMP_temperature;BMP_pressure;BME280_temperature;BME280_humidity;BME280_pressure;Samples;Min_cycle;Max_cycle;Signal;HPM_P1;HPM_P2
2022/01/16 00:05:04;;;;;;;23.43;16.33;;;;;;;-0.94;100.00;97824.19;5055355;28;20250;-60
2022/01/16 00:07:32;;;;;;;31.33;19.00;;;;;;;-1.18;100.00;97837.75;5052051;28;20243;-61
2022/01/16 00:10:01;;;;;;;29.47;17.07;;;;;;;-1.14;100.00;97819.34;5053687;28;20203;-58
2022/01/16 00:12:29;;;;;;;33.57;17.73;;;;;;;-1.22;100.00;97794.66;5055710;28;20228;-58
2022/01/16 00:14:58;;;;;;;37.40;16.50;;;;;;;-1.16;100.00;97780.44;5053489;28;20691;-57
2022/01/16 00:17:28;;;;;;;25.70;16.23;;;;;;;-1.16;100.00;97796.03;5056547;28;20293;-61
2022/01/16 00:19:56;;;;;;;27.30;17.00;;;;;;;-1.09;100.00;97802.56;5054284;28;20290;-58
2022/01/16 00:22:27;;;;;;;31.93;17.03;;;;;;;-1.21;100.00;97801.53;5052033;28;20837;-57
2022/01/16 00:24:56;;;;;;;24.43;15.60;;;;;;;-1.09;100.00;97804.31;5053096;28;20250;-58
2022/01/16 00:27:24;;;;;;;19.47;12.90;;;;;;;-1.10;100.00;97787.03;5050640;28;20294;-60
2022/01/16 00:29:52;;;;;;;21.40;14.73;;;;;;;-1.10;100.00;97803.47;5051525;28;20298;-57
2022/01/16 00:32:20;;;;;;;25.10;15.47;;;;;;;-1.08;100.00;97790.38;5050576;28;20235;-57
2022/01/16 00:34:49;;;;;;;25.10;13.67;;;;;;;-1.19;100.00;97762.41;5050888;28;20246;-58
2022/01/16 00:37:18;;;;;;;22.57;13.97;;;;;;;-1.35;100.00;97767.72;5055199;28;20203;-59
2022/01/16 00:39:46;;;;;;;19.57;13.27;;;;;;;-1.43;100.00;97759.56;5052105;28;20199;-60
2022/01/16 00:42:14;;;;;;;24.33;14.97;;;;;;;-1.33;100.00;97781.47;5052757;28;20290;-58
2022/01/16 00:44:43;;;;;;;23.77;15.47;;;;;;;-1.25;100.00;97757.59;5056434;28;21161;-58
2022/01/16 00:47:11;;;;;;;26.43;15.23;;;;;;;-1.42;100.00;97769.91;5053569;28;20195;-58
2022/01/16 00:49:41;;;;;;;24.53;14.03;;;;;;;-1.38;100.00;97784.38;5051243;28;20294;-61
2022/01/16 00:52:11;;;;;;;24.73;15.87;;;;;;;-1.39;100.00;97793.09;5051524;28;20963;-58
2022/01/16 00:54:39;;;;;;;34.40;17.80;;;;;;;-1.53;100.00;97774.91;5053528;28;20239;-59
2022/01/16 00:57:07;;;;;;;29.43;17.10;;;;;;;-1.48;100.00;97759.88;5052354;28;20457;-58
2022/01/16 00:59:36;;;;;;;25.50;14.67;;;;;;;-1.34;100.00;97761.59;5055223;28;20460;-57
2022/01/16 01:02:05;;;;;;;23.53;15.33;;;;;;;-1.54;100.00;97771.47;5051090;28;21070;-58
2022/01/16 01:04:33;;;;;;;25.57;15.20;;;;;;;-1.50;100.00;97765.16;5054135;28;20511;-59
2022/01/16 01:07:01;;;;;;;29.43;17.03;;;;;;;-1.41;100.00;97771.56;5051190;28;20231;-59
2022/01/16 01:09:31;;;;;;;23.03;14.73;;;;;;;-1.27;100.00;97775.91;5054131;28;20205;-57
2022/01/16 01:11:59;;;;;;;26.03;16.00;;;;;;;-1.35;100.00;97791.13;5050170;28;20536;-59
2022/01/16 01:14:39;;;;;;;29.40;15.40;;;;;;;-1.35;100.00;97796.31;5050227;28;20310;-60
2022/01/16 01:17:09;;;;;;;22.93;13.67;;;;;;;-1.53;100.00;97803.47;5047583;28;20516;-58
2022/01/16 01:19:38;;;;;;;16.70;12.13;;;;;;;-1.41;100.00;97791.50;5056038;28;20321;-59
2022/01/16 01:22:06;;;;;;;21.97;11.67;;;;;;;-1.44;100.00;97791.69;5050716;28;20234;-58
2022/01/16 01:24:36;;;;;;;20.13;11.33;;;;;;;-1.39;100.00;97730.72;5051077;28;20254;-59
2022/01/16 01:27:12;;;;;;;19.87;14.50;;;;;;;-1.38;100.00;97676.94;5050070;28;20464;-56
2022/01/16 01:29:44;;;;;;;20.00;12.03;;;;;;;-1.36;100.00;97672.47;5049056;28;20477;-57
2022/01/16 01:32:12;;;;;;;21.07;12.97;;;;;;;-1.51;100.00;97679.50;5048737;28;20279;-60
2022/01/16 01:34:40;;;;;;;22.43;13.30;;;;;;;-1.51;100.00;97676.91;5052519;28;20226;-59
2022/01/16 01:37:12;;;;;;;18.73;11.53;;;;;;;-1.49;100.00;97667.25;5050279;28;20198;-58
2022/01/16 01:39:46;;;;;;;21.27;12.67;;;;;;;-1.53;100.00;97712.50;5054156;28;20294;-61
2022/01/16 01:42:20;;;;;;;20.77;12.57;;;;;;;-1.57;100.00;97714.50;5053011;28;20539;-60
2022/01/16 01:53:07;;;;;;;16.40;12.30;;;;;;;-1.50;100.00;97717.56;5036977;28;20705;-58
2022/01/16 01:55:37;;;;;;;22.77;12.67;;;;;;;-1.43;100.00;97718.00;5056616;28;21243;-59
2022/01/16 01:58:05;;;;;;;24.80;12.77;;;;;;;-1.45;100.00;97715.50;5057422;28;21025;-59
2022/01/16 02:00:33;;;;;;;20.63;12.60;;;;;;;-1.39;100.00;97696.91;5055441;28;20206;-61
2022/01/16 02:03:13;;;;;;;21.47;12.60;;;;;;;-1.56;100.00;97704.91;5052604;28;20214;-59
2022/01/16 02:05:42;;;;;;;17.23;12.33;;;;;;;-1.50;100.00;97718.38;5056524;28;20662;-59
2022/01/16 02:08:11;;;;;;;19.87;12.73;;;;;;;-1.50;100.00;97718.38;5058152;28;20497;-59
2022/01/16 02:10:42;;;;;;;18.50;11.27;;;;;;;-1.48;100.00;97719.09;5056825;28;20238;-58
2022/01/16 02:13:19;;;;;;;20.67;11.77;;;;;;;-1.43;100.00;97718.00;5054785;28;20461;-55
2022/01/16 02:33:23;;;;;;;21.13;13.10;;;;;;;-1.30;100.00;97708.50;4994847;28;20552;-61
2022/01/16 02:35:54;;;;;;;18.27;11.53;;;;;;;-1.48;100.00;97687.91;4997518;28;20260;-57
2022/01/16 02:38:22;;;;;;;20.93;14.27;;;;;;;-1.50;100.00;97675.97;4996482;28;20639;-59
2022/01/16 02:40:56;;;;;;;21.37;13.83;;;;;;;-1.52;100.00;97683.00;4994221;28;20455;-58
2022/01/16 02:43:30;;;;;;;33.50;15.83;;;;;;;-1.42;100.00;97678.06;4998483;28;20212;-58
2022/01/16 02:46:35;;;;;;;24.17;14.87;;;;;;;-1.47;100.00;97686.16;4993921;28;20533;-59
2022/01/16 02:48:58;;;;;;;28.77;15.07;;;;;;;-1.57;100.00;97687.66;4997193;28;20251;-58
2022/01/16 02:51:29;;;;;;;29.23;15.97;;;;;;;-1.44;100.00;97695.53;4997730;28;20970;-59
2022/01/16 02:53:57;;;;;;;24.73;14.93;;;;;;;-1.50;100.00;97689.78;4995438;28;20213;-59
2022/01/16 02:56:27;;;;;;;22.27;14.07;;;;;;;-1.59;100.00;97687.75;5002834;28;20205;-57
2022/01/16 02:58:55;;;;;;;24.33;14.70;;;;;;;-1.52;100.00;97678.66;5052729;28;20311;-62
2022/01/16 03:01:23;;;;;;;23.27;14.57;;;;;;;-1.47;100.00;97667.97;5053142;28;20979;-61
2022/01/16 03:03:51;;;;;;;26.93;14.40;;;;;;;-1.46;100.00;97661.84;5059744;28;20218;-56
2022/01/16 03:06:19;;;;;;;28.40;16.00;;;;;;;-1.47;100.00;97652.38;5052418;28;20320;-58
2022/01/16 03:08:48;;;;;;;29.57;17.27;;;;;;;-1.67;100.00;97658.81;5054145;28;20292;-62
2022/01/16 03:11:26;;;;;;;30.20;15.97;;;;;;;-1.67;100.00;97669.22;5052639;28;20323;-61
2022/01/16 03:13:55;;;;;;;29.17;16.73;;;;;;;-1.60;100.00;97662.69;5055287;28;20231;-54
2022/01/16 03:16:24;;;;;;;32.27;15.87;;;;;;;-1.71;100.00;97662.50;5053476;28;21335;-60
2022/01/16 03:21:57;;;;;;;27.90;15.33;;;;;;;-1.67;100.00;97670.03;5055889;28;20213;-58
2022/01/16 03:24:27;;;;;;;26.83;17.00;;;;;;;-1.62;100.00;97677.56;5053088;28;20215;-62
2022/01/16 03:26:56;;;;;;;25.93;15.37;;;;;;;-1.52;100.00;97675.19;5049462;28;20203;-57
2022/01/16 03:29:26;;;;;;;29.70;16.13;;;;;;;-1.55;100.00;97672.78;5053953;28;20203;-58
2022/01/16 03:31:55;;;;;;;28.20;15.77;;;;;;;-1.44;100.00;97669.53;5056140;28;20214;-56
2022/01/16 03:34:23;;;;;;;27.10;15.83;;;;;;;-1.50;100.00;97666.38;5057234;28;20227;-59
2022/01/16 03:36:51;;;;;;;30.50;15.20;;;;;;;-1.43;100.00;97659.03;5056962;28;20458;-57
2022/01/16 03:39:19;;;;;;;33.63;16.57;;;;;;;-1.48;100.00;97669.72;5058322;28;20218;-61
2022/01/16 03:41:47;;;;;;;28.57;16.40;;;;;;;-1.44;100.00;97667.78;5059562;28;20460;-63
2022/01/16 03:44:17;;;;;;;27.10;16.33;;;;;;;-1.48;100.00;97669.72;5054413;28;20223;-58
2022/01/16 03:46:47;;;;;;;27.83;16.50;;;;;;;-1.41;100.00;97666.72;5057504;28;20202;-59
2022/01/16 03:49:17;;;;;;;28.97;15.57;;;;;;;-1.47;100.00;97663.59;5058530;28;20229;-60
2022/01/16 03:51:47;;;;;;;30.23;17.40;;;;;;;-1.47;100.00;97680.97;5055773;28;20727;-62
2022/01/16 03:54:16;;;;;;;34.80;16.37;;;;;;;-1.48;100.00;97674.91;5057862;28;20219;-59
2022/01/16 03:56:45;;;;;;;31.73;16.77;;;;;;;-1.53;100.00;97689.97;5056089;28;20206;-60
2022/01/16 03:59:13;;;;;;;30.57;17.30;;;;;;;-1.60;100.00;97686.91;5056349;28;20214;-60
2022/01/16 04:01:42;;;;;;;42.37;18.83;;;;;;;-1.63;100.00;97674.09;5055210;28;20627;-59
2022/01/16 04:04:12;;;;;;;34.47;16.63;;;;;;;-1.69;100.00;97671.91;5056927;28;20236;-59
2022/01/16 04:06:40;;;;;;;32.00;17.60;;;;;;;-1.62;100.00;97672.34;5052872;28;20286;-62
2022/01/16 04:09:08;;;;;;;35.73;17.90;;;;;;;-1.70;100.00;97664.22;5059496;28;20195;-57
2022/01/16 04:11:38;;;;;;;33.27;16.83;;;;;;;-1.68;100.00;97667.56;5055703;28;20207;-62
2022/01/16 04:14:09;;;;;;;33.77;18.60;;;;;;;-1.79;100.00;97671.63;5058272;28;20218;-59
2022/01/16 04:16:38;;;;;;;31.50;16.77;;;;;;;-1.71;100.00;97662.50;5055341;28;20257;-57
2022/01/16 04:19:06;;;;;;;30.00;16.67;;;;;;;-1.72;100.00;97666.03;5056232;28;20203;-61
2022/01/16 04:21:35;;;;;;;23.13;14.90;;;;;;;-1.74;100.00;97658.34;5056657;28;20993;-60
2022/01/16 04:24:04;;;;;;;24.40;15.37;;;;;;;-1.78;100.00;97668.09;5049503;28;20479;-61
2022/01/16 04:26:32;;;;;;;24.30;14.30;;;;;;;-1.68;100.00;97675.34;5055628;28;20208;-61
2022/01/16 04:29:00;;;;;;;28.17;15.80;;;;;;;-1.68;100.00;97672.75;5056135;28;20213;-59
2022/01/16 04:31:28;;;;;;;34.40;15.63;;;;;;;-1.68;100.00;97667.56;5056165;28;20313;-57
2022/01/16 04:33:56;;;;;;;28.33;15.73;;;;;;;-1.73;100.00;97669.56;5055842;28;20210;-59
2022/01/16 04:36:24;;;;;;;29.73;15.67;;;;;;;-1.82;100.00;97666.63;5056509;28;20226;-59
2022/01/16 04:38:53;;;;;;;29.17;16.80;;;;;;;-1.76;100.00;97674.03;5054551;28;20217;-58
2022/01/16 04:44:07;;;;;;;27.63;13.83;;;;;;;-1.75;100.00;97660.09;5052710;28;20224;-58
2022/01/16 04:46:35;;;;;;;28.40;15.37;;;;;;;-1.78;100.00;97655.09;5055888;28;20234;-58
2022/01/16 04:49:04;;;;;;;30.83;15.23;;;;;;;-1.85;100.00;97648.63;5055039;28;20680;-60
2022/01/16 04:51:33;;;;;;;30.30;13.90;;;;;;;-2.03;100.00;97645.38;5054156;28;20945;-55
2022/01/16 04:54:02;;;;;;;26.70;15.50;;;;;;;-2.01;100.00;97635.75;5053690;28;20461;-59
2022/01/16 04:56:30;;;;;;;25.90;14.03;;;;;;;-2.01;100.00;97638.34;5052253;28;20262;-60
2022/01/16 04:58:58;;;;;;;27.40;16.07;;;;;;;-1.96;100.00;97638.06;5050998;28;20237;-58
2022/01/16 05:01:26;;;;;;;24.20;14.40;;;;;;;-1.86;100.00;97638.34;5051740;28;20897;-58
2022/01/16 05:03:54;;;;;;;24.87;13.63;;;;;;;-1.90;100.00;97632.50;5056848;28;20203;-58
2022/01/16 05:06:22;;;;;;;25.87;13.80;;;;;;;-1.98;100.00;97629.53;5048243;28;20461;-57
2022/01/16 05:08:50;;;;;;;19.67;13.37;;;;;;;-2.00;100.00;97632.22;5058623;28;20976;-59
2022/01/16 05:11:24;;;;;;;23.73;14.53;;;;;;;-1.91;100.00;97631.63;5050245;28;20203;-58
2022/01/16 05:16:38;;;;;;;28.90;14.00;;;;;;;-2.04;100.00;97617.75;5016179;28;20488;-61
2022/01/16 05:19:08;;;;;;;27.17;14.50;;;;;;;-2.07;100.00;97621.38;5061584;28;20672;-60
2022/01/16 05:21:36;;;;;;;30.47;13.53;;;;;;;-1.96;100.00;97630.28;5062377;28;20539;-63
2022/01/16 05:24:08;;;;;;;33.90;16.70;;;;;;;-2.01;100.00;97627.94;5059464;28;20469;-60
2022/01/16 05:26:39;;;;;;;35.70;15.57;;;;;;;-1.94;100.00;97629.22;5053794;28;20747;-62
2022/01/16 05:29:07;;;;;;;30.47;16.03;;;;;;;-1.99;100.00;97610.50;5056588;28;20207;-62
2022/01/16 05:31:35;;;;;;;23.30;15.07;;;;;;;-2.00;100.00;97616.63;5057048;28;20453;-61
2022/01/16 05:34:03;;;;;;;27.47;13.87;;;;;;;-1.88;100.00;97611.63;5050620;28;20219;-60
2022/01/16 05:36:31;;;;;;;30.27;14.37;;;;;;;-1.92;100.00;97619.59;5046226;28;20611;-60
2022/01/16 05:38:59;;;;;;;27.33;14.97;;;;;;;-1.97;100.00;97620.81;5053219;28;20209;-59
2022/01/16 05:41:27;;;;;;;25.00;13.80;;;;;;;-1.92;100.00;97621.38;5056274;28;20457;-59
2022/01/16 05:43:57;;;;;;;32.77;16.03;;;;;;;-1.97;100.00;97632.03;5056379;28;20215;-60
2022/01/16 05:46:25;;;;;;;33.23;17.27;;;;;;;-1.96;100.00;97630.28;5058929;28;20497;-57
2022/01/16 05:48:53;;;;;;;36.57;16.23;;;;;;;-1.86;100.00;97633.97;5055469;28;20295;-61
2022/01/16 05:51:21;;;;;;;31.43;15.97;;;;;;;-1.95;100.00;97650.94;5055550;28;20216;-61
2022/01/16 05:53:51;;;;;;;26.70;15.67;;;;;;;-1.91;100.00;97649.00;5053135;28;20471;-60
2022/01/16 05:56:19;;;;;;;30.97;16.60;;;;;;;-1.96;100.00;97653.66;5052543;28;20516;-59
2022/01/16 05:58:47;;;;;;;30.10;16.53;;;;;;;-2.03;100.00;97647.97;5052825;28;20191;-59
2022/01/16 06:01:16;;;;;;;32.20;16.77;;;;;;;-2.01;100.00;97642.72;5056032;28;20453;-57
2022/01/16 06:03:44;;;;;;;50.30;22.88;;;;;;;-2.06;100.00;97638.63;5053662;28;20471;-60
2022/01/16 06:06:13;;;;;;;33.57;16.07;;;;;;;-1.99;100.00;97646.88;5053952;28;20661;-61
2022/01/16 06:08:41;;;;;;;33.47;16.30;;;;;;;-1.98;100.00;97650.31;5050339;28;20211;-61
2022/01/16 06:11:09;;;;;;;33.73;16.67;;;;;;;-2.01;100.00;97650.50;5050066;28;20207;-61
2022/01/16 06:13:37;;;;;;;44.40;21.85;;;;;;;-1.94;100.00;97654.38;5055073;28;20449;-55
2022/01/16 06:30:17;;;;;;;34.23;16.03;;;;;;;-2.05;100.00;97662.81;5122762;23;20240;-56
2022/01/16 06:32:46;;;;;;;42.63;20.30;;;;;;;-2.02;100.00;97667.00;4991000;28;20461;-54
2022/01/16 06:35:15;;;;;;;28.27;16.67;;;;;;;-2.05;100.00;97676.66;4992406;28;20367;-55
2022/01/16 06:37:43;;;;;;;26.93;13.43;;;;;;;-2.10;100.00;97678.69;4991809;28;20983;-56
2022/01/16 06:40:12;;;;;;;26.93;12.97;;;;;;;-2.01;100.00;97673.88;5010306;28;20478;-53
2022/01/16 06:42:41;;;;;;;24.37;14.23;;;;;;;-2.11;100.00;97676.19;5005968;28;20547;-58
2022/01/16 06:45:11;;;;;;;31.10;14.20;;;;;;;-2.10;100.00;97686.47;4995755;28;20223;-55
2022/01/16 06:47:41;;;;;;;21.73;12.43;;;;;;;-2.18;100.00;97688.69;4997489;28;20398;-59
2022/01/16 06:50:10;;;;;;;34.08;19.23;;;;;;;-2.27;100.00;97689.25;4992369;28;20521;-56
2022/01/16 06:52:38;;;;;;;24.17;14.07;;;;;;;-2.16;100.00;97681.63;4994569;28;20208;-56
2022/01/16 06:55:07;;;;;;;26.90;14.90;;;;;;;-2.16;100.00;97678.22;4991325;28;20475;-51
2022/01/16 06:57:35;;;;;;;32.47;13.97;;;;;;;-2.09;100.00;97684.72;4994569;28;20566;-58
2022/01/16 07:00:06;;;;;;;26.07;13.40;;;;;;;-2.27;100.00;97697.03;5000048;28;20483;-52
2022/01/16 07:02:34;;;;;;;20.60;11.23;;;;;;;-2.15;100.00;97695.47;4997441;28;20656;-54
2022/01/16 07:05:04;;;;;;;22.47;11.33;;;;;;;-2.16;100.00;97688.63;4999268;28;20205;-58
2022/01/16 07:07:33;;;;;;;19.43;11.00;;;;;;;-2.08;100.00;97699.38;4995689;28;20543;-57
2022/01/16 07:10:01;;;;;;;19.33;12.30;;;;;;;-2.09;100.00;97703.72;4997417;28;20476;-57
2022/01/16 07:12:29;;;;;;;20.00;12.27;;;;;;;-2.26;100.00;97702.16;4999311;28;20892;-50
2022/01/16 07:14:57;;;;;;;25.50;16.05;;;;;;;-2.31;100.00;97696.38;4999622;28;20773;-58
2022/01/16 07:17:25;;;;;;;17.07;12.07;;;;;;;-2.23;100.00;97696.78;4980626;28;20225;-55
2022/01/16 07:19:53;;;;;;;22.73;13.38;;;;;;;-2.17;100.00;97705.94;4997557;28;20447;-51
2022/01/16 07:22:23;;;;;;;21.23;11.73;;;;;;;-2.29;100.00;97698.88;5001724;28;20213;-56
2022/01/16 07:24:51;;;;;;;21.63;11.17;;;;;;;-2.44;100.00;97705.81;4998728;28;20504;-58
2022/01/16 07:27:20;;;;;;;22.50;15.48;;;;;;;-2.34;100.00;97704.34;4995268;28;20845;-56
2022/01/16 07:29:48;;;;;;;15.67;11.03;;;;;;;-2.35;100.00;97703.50;4995178;28;20260;-56
2022/01/16 07:32:16;;;;;;;18.05;12.57;;;;;;;-2.31;100.00;97706.75;4995344;28;20486;-56
2022/01/16 07:34:44;;;;;;;14.47;10.17;;;;;;;-2.36;100.00;97713.97;4998045;28;20794;-57
2022/01/16 07:37:14;;;;;;;12.83;9.80;;;;;;;-2.40;100.00;97726.31;4997644;28;20307;-56
2022/01/16 07:39:44;;;;;;;12.43;8.73;;;;;;;-2.48;100.00;97731.94;4997280;28;20227;-54
2022/01/16 07:42:12;;;;;;;14.53;8.10;;;;;;;-2.42;100.00;97735.94;4999336;28;20464;-55
2022/01/16 07:44:40;;;;;;;14.33;9.47;;;;;;;-2.44;100.00;97736.94;4998185;28;20215;-55
2022/01/16 07:47:08;;;;;;;11.47;9.23;;;;;;;-2.43;100.00;97723.03;4998145;28;20861;-59
2022/01/16 07:49:36;;;;;;;12.70;8.63;;;;;;;-2.43;100.00;97712.66;4997111;28;20228;-54
2022/01/16 07:52:05;;;;;;;13.43;8.83;;;;;;;-2.46;100.00;97708.50;4993991;28;20456;-55
2022/01/16 07:54:33;;;;;;;13.77;8.70;;;;;;;-2.40;100.00;97722.88;4993862;28;20216;-57
2022/01/16 07:57:04;;;;;;;10.70;7.37;;;;;;;-2.31;100.00;97732.72;4994571;28;20484;-51
2022/01/16 07:59:32;;;;;;;12.80;8.27;;;;;;;-2.22;100.00;97723.56;4997100;28;20244;-54
2022/01/16 08:02:00;;;;;;;12.03;8.77;;;;;;;-2.26;100.00;97733.31;4994208;28;20212;-53
2022/01/16 08:04:28;;;;;;;9.97;6.63;;;;;;;-2.19;100.00;97741.53;4997524;28;20216;-53
2022/01/16 08:06:56;;;;;;;10.23;7.13;;;;;;;-2.31;100.00;97724.09;4995844;28;20459;-56
2022/01/16 08:09:24;;;;;;;9.57;7.90;;;;;;;-2.19;100.00;97715.56;4995634;28;20475;-56
2022/01/16 08:11:57;;;;;;;9.10;7.30;;;;;;;-2.14;100.00;97718.72;4996360;28;20486;-57
2022/01/16 08:14:26;;;;;;;21.83;14.07;;;;;;;-2.14;100.00;97720.50;4994889;28;20792;-59
2022/01/16 08:16:56;;;;;;;10.37;8.03;;;;;;;-2.22;100.00;97724.41;4996526;28;20490;-58
2022/01/16 08:19:24;;;;;;;10.57;8.27;;;;;;;-2.16;100.00;97730.97;4994295;28;20224;-56
2022/01/16 08:21:52;;;;;;;10.47;8.07;;;;;;;-2.14;100.00;97728.31;4995754;28;20460;-55
2022/01/16 08:24:21;;;;;;;10.97;8.43;;;;;;;-2.15;100.00;97731.81;4997466;28;20291;-56
2022/01/16 08:26:49;;;;;;;10.93;7.93;;;;;;;-2.04;100.00;97743.25;4992946;28;21266;-55
2022/01/16 08:29:18;;;;;;;10.57;7.87;;;;;;;-1.98;100.00;97738.63;4995077;28;20491;-58
2022/01/16 08:31:47;;;;;;;8.53;7.57;;;;;;;-1.92;100.00;97751.22;4996700;28;20208;-58
2022/01/16 08:34:15;;;;;;;8.33;7.30;;;;;;;-2.02;100.00;97745.75;4995678;28;20205;-54
2022/01/16 08:36:43;;;;;;;11.17;8.13;;;;;;;-1.96;100.00;97741.94;4996883;28;20471;-57
2022/01/16 08:39:11;;;;;;;14.37;9.80;;;;;;;-2.05;100.00;97749.38;4995164;28;20483;-58
2022/01/16 08:41:39;;;;;;;11.23;8.40;;;;;;;-1.89;100.00;97743.25;4995441;28;21123;-57
2022/01/16 08:44:07;;;;;;;15.83;10.80;;;;;;;-2.04;100.00;97742.41;4994734;28;20958;-56
2022/01/16 08:46:40;;;;;;;12.93;8.13;;;;;;;-1.93;100.00;97747.78;4995246;28;20448;-56
2022/01/16 08:49:10;;;;;;;11.23;8.70;;;;;;;-1.87;100.00;97736.19;4995576;28;20869;-48
2022/01/16 08:51:38;;;;;;;11.43;8.93;;;;;;;-1.82;100.00;97738.53;4994754;28;20470;-54
2022/01/16 08:54:06;;;;;;;9.17;8.10;;;;;;;-1.77;100.00;97746.88;4995555;28;20212;-53
2022/01/16 08:56:34;;;;;;;12.87;8.63;;;;;;;-1.57;100.00;97758.66;4996008;28;20209;-53
2022/01/16 08:59:03;;;;;;;11.33;7.93;;;;;;;-1.69;100.00;97744.66;4993834;28;20233;-53
2022/01/16 09:01:32;;;;;;;14.30;9.33;;;;;;;-1.78;100.00;97755.59;4992683;28;20323;-54
2022/01/16 09:04:00;;;;;;;13.97;9.43;;;;;;;-1.76;100.00;97743.34;4992784;28;20945;-56
2022/01/16 09:06:30;;;;;;;16.63;9.70;;;;;;;-1.76;100.00;97744.19;4992312;28;21253;-53
2022/01/16 09:08:58;;;;;;;12.90;8.07;;;;;;;-1.63;100.00;97748.66;4995801;28;20529;-56
2022/01/16 09:11:26;;;;;;;15.33;9.70;;;;;;;-1.70;100.00;97752.56;4994750;28;20457;-56
2022/01/16 09:13:54;;;;;;;16.77;9.23;;;;;;;-1.45;100.00;97751.88;4990253;28;20212;-52
2022/01/16 09:16:22;;;;;;;13.73;9.50;;;;;;;-1.44;100.00;97752.72;4993436;28;20547;-52
2022/01/16 09:18:50;;;;;;;14.23;10.10;;;;;;;-1.26;100.00;97748.13;4975044;28;20220;-57
2022/01/16 09:21:19;;;;;;;16.57;9.07;;;;;;;-1.16;100.00;97757.03;4993446;28;20205;-56
2022/01/16 09:23:50;;;;;;;11.77;9.07;;;;;;;-1.16;100.00;97746.63;4995667;28;20205;-54
2022/01/16 09:26:19;;;;;;;15.23;8.67;;;;;;;-1.21;100.00;97746.06;4996351;28;20215;-53
2022/01/16 09:28:46;;;;;;;13.33;9.63;;;;;;;-0.98;100.00;97752.44;4993771;28;20228;-53
2022/01/16 09:31:15;;;;;;;15.13;9.63;;;;;;;-0.86;100.00;97747.41;4996342;28;20201;-56
2022/01/16 09:33:43;;;;;;;13.33;9.97;;;;;;;-0.68;100.00;97746.19;4996947;28;21141;-53
2022/01/16 09:36:11;;;;;;;20.87;14.27;;;;;;;-0.56;100.00;97741.97;4995312;28;20205;-53
2022/01/16 09:38:40;;;;;;;14.00;9.87;;;;;;;-0.59;100.00;97744.78;4993896;28;20217;-54
2022/01/16 09:41:10;;;;;;;15.67;10.90;;;;;;;-0.59;100.00;97739.56;4993756;28;20207;-51
2022/01/16 09:43:38;;;;;;;13.93;10.57;;;;;;;-0.68;100.00;97741.00;4996367;28;20193;-55
2022/01/16 09:46:06;;;;;;;13.53;9.53;;;;;;;-0.69;100.00;97744.53;4998550;28;20289;-53
2022/01/16 09:48:35;;;;;;;12.13;8.27;;;;;;;-0.59;100.00;97748.19;4996771;28;20315;-56
2022/01/16 09:51:03;;;;;;;17.70;9.90;;;;;;;-0.32;100.00;97747.34;4995573;28;20224;-59
2022/01/16 09:53:31;;;;;;;12.07;8.83;;;;;;;-0.36;100.00;97739.84;5000712;28;20216;-48
2022/01/16 09:55:59;;;;;;;13.37;9.73;;;;;;;-0.35;100.00;97731.09;4998626;28;20230;-56
2022/01/16 09:58:29;;;;;;;19.13;12.70;;;;;;;-0.11;100.00;97725.16;5001289;28;20240;-50
2022/01/16 10:00:57;;;;;;;15.17;10.80;;;;;;;-0.33;100.00;97735.25;4995803;28;20212;-56
2022/01/16 10:03:36;;;;;;;13.80;10.37;;;;;;;0.01;100.00;97733.94;4999870;28;20224;-57
2022/01/16 10:06:10;;;;;;;17.77;10.67;;;;;;;0.10;100.00;97735.91;5000748;28;20319;-52
2022/01/16 10:08:39;;;;;;;16.20;10.87;;;;;;;0.10;100.00;97728.09;4998618;28;20227;-53
2022/01/16 10:11:21;;;;;;;15.80;11.00;;;;;;;-0.01;100.00;97727.06;5000101;28;20215;-47
2022/01/16 10:13:58;;;;;;;15.00;10.83;;;;;;;0.08;100.00;97732.56;5001932;28;20204;-55
2022/01/16 10:16:28;;;;;;;13.13;9.50;;;;;;;-0.01;100.00;97729.66;5002192;28;20291;-58
2022/01/16 10:18:56;;;;;;;13.90;10.00;;;;;;;-0.02;100.00;97711.50;5002261;28;20374;-56
2022/01/16 10:21:36;;;;;;;13.60;10.67;;;;;;;0.06;100.00;97711.84;5001334;28;20212;-54
2022/01/16 10:24:19;;;;;;;18.57;10.97;;;;;;;-0.02;100.00;97714.97;4996403;28;20685;-55
2022/01/16 10:26:50;;;;;;;16.60;10.43;;;;;;;0.06;100.00;97716.22;5002451;28;20661;-50
2022/01/16 10:29:21;;;;;;;15.10;10.07;;;;;;;0.19;100.00;97718.81;4999744;28;20228;-55
2022/01/16 10:31:50;;;;;;;15.50;10.07;;;;;;;0.07;100.00;97712.66;5003189;28;20205;-54
2022/01/16 10:34:28;;;;;;;16.87;11.97;;;;;;;0.25;100.00;97715.78;4997850;28;20993;-49
2022/01/16 10:36:56;;;;;;;16.30;10.90;;;;;;;0.06;100.00;97719.66;5002122;28;20584;-51
2022/01/16 10:39:24;;;;;;;20.03;11.07;;;;;;;0.14;100.00;97724.34;4998586;28;20244;-50
2022/01/16 10:42:15;;;;;;;14.03;11.47;;;;;;;0.32;100.00;97729.22;5002481;28;20197;-57
2022/01/16 10:44:45;;;;;;;16.00;11.20;;;;;;;0.06;100.00;97726.63;5000098;28;20670;-54
2022/01/16 10:47:34;;;;;;;16.47;10.73;;;;;;;0.03;100.00;97725.09;5001881;28;20201;-51
2022/01/16 10:50:11;;;;;;;18.73;11.73;;;;;;;0.15;100.00;97720.78;4993972;28;20214;-50
2022/01/16 10:52:56;;;;;;;19.77;12.00;;;;;;;0.19;100.00;97718.81;5000988;28;20215;-50
2022/01/16 10:55:32;;;;;;;16.37;11.47;;;;;;;0.41;100.00;97723.38;4999905;28;20213;-51
2022/01/16 10:58:02;;;;;;;17.07;13.13;;;;;;;0.19;100.00;97724.88;4999749;28;20211;-53
2022/01/16 11:00:31;;;;;;;16.97;13.20;;;;;;;0.38;100.00;97721.84;5000242;28;20216;-51
2022/01/16 11:03:03;;;;;;;16.73;13.13;;;;;;;0.33;100.00;97721.28;4999996;28;20209;-51
2022/01/16 11:05:34;;;;;;;15.17;12.80;;;;;;;0.10;100.00;97720.28;4996096;28;20205;-54
2022/01/16 11:08:04;;;;;;;21.00;15.13;;;;;;;0.04;100.00;97724.16;5001751;28;20543;-48
2022/01/16 11:10:33;;;;;;;21.77;16.97;;;;;;;-0.04;100.00;97722.06;4999536;28;20233;-52
2022/01/16 11:13:03;;;;;;;19.17;14.37;;;;;;;-0.09;100.00;97729.34;5000257;28;20202;-51
2022/01/16 11:15:34;;;;;;;22.87;15.47;;;;;;;-0.22;100.00;97718.06;4999716;28;20213;-52
2022/01/16 11:18:02;;;;;;;20.87;15.93;;;;;;;-0.18;100.00;97720.38;5002032;28;20546;-51
2022/01/16 11:20:34;;;;;;;23.50;16.60;;;;;;;-0.10;100.00;97717.25;5000382;28;20225;-49
2022/01/16 11:23:07;;;;;;;22.60;16.33;;;;;;;-0.19;100.00;97717.84;5000716;28;20224;-54
2022/01/16 11:25:37;;;;;;;24.00;15.87;;;;;;;-0.11;100.00;97720.81;5000439;28;20698;-56
2022/01/16 11:28:07;;;;;;;20.13;15.50;;;;;;;-0.09;100.00;97718.94;5000101;28;20218;-55
2022/01/16 11:30:38;;;;;;;21.13;16.30;;;;;;;0.02;100.00;97713.00;4998611;28;20201;-49
2022/01/16 11:33:07;;;;;;;18.93;14.57;;;;;;;-0.05;100.00;97722.16;4998810;28;20197;-50
2022/01/16 11:35:41;;;;;;;20.90;15.63;;;;;;;-0.15;100.00;97721.94;4999284;28;20215;-54
2022/01/16 11:38:10;;;;;;;21.57;14.80;;;;;;;0.03;100.00;97712.06;4998316;28;20205;-52
2022/01/16 11:40:45;;;;;;;19.03;14.60;;;;;;;-0.20;100.00;97721.41;5002441;28;20236;-55
2022/01/16 11:43:22;;;;;;;21.33;15.17;;;;;;;-0.06;100.00;97720.47;4997286;28;20288;-55
2022/01/16 11:45:55;;;;;;;20.07;15.57;;;;;;;-0.12;100.00;97723.50;4999850;28;20212;-54
2022/01/16 11:48:49;;;;;;;21.30;15.50;;;;;;;-0.05;100.00;97725.59;5001370;28;20200;-52
2022/01/16 11:52:03;;;;;;;20.93;16.20;;;;;;;0.01;100.00;97732.19;4998170;28;20560;-54
2022/01/16 11:54:34;;;;;;;20.23;16.07;;;;;;;-0.08;100.00;97730.16;4995802;28;20735;-56
2022/01/16 11:57:05;;;;;;;19.57;13.97;;;;;;;-0.15;100.00;97737.59;4998643;28;20209;-54
2022/01/16 11:59:41;;;;;;;21.77;16.03;;;;;;;-0.14;100.00;97749.66;4999656;28;20642;-56
2022/01/16 12:02:20;;;;;;;19.97;14.77;;;;;;;-0.26;100.00;97735.69;5000863;28;20670;-54
2022/01/16 12:04:53;;;;;;;20.50;14.93;;;;;;;-0.41;100.00;97732.31;4999214;28;20756;-50
2022/01/16 12:07:58;;;;;;;20.00;15.00;;;;;;;-0.24;100.00;97739.03;5000188;28;20292;-55
2022/01/16 12:10:46;;;;;;;19.33;14.70;;;;;;;-0.39;100.00;97734.81;4997855;28;20220;-52
2022/01/16 12:13:54;;;;;;;21.90;15.97;;;;;;;-0.27;100.00;97747.03;4999826;28;20211;-53
2022/01/16 12:16:43;;;;;;;22.07;15.10;;;;;;;-0.37;100.00;97746.81;5005416;28;20197;-53
2022/01/16 12:19:36;;;;;;;20.57;13.60;;;;;;;-0.43;100.00;97739.41;5002286;28;20637;-51